Terminal Aerodrome Forecast
Issued by NWS Central Illinois

Home | Current Version | Previous Version | Text Only | Print | Product List | Glossary On
Versions: 1 2 3 4 5 6 7 8 9 10 11 12 13 14 15 16 17 18
000
FTUS43 KILX 311700
TAFPIA
TAF
KPIA 311722Z 3118/0118 23009KT P6SM BKN040
     FM312100 21006KT 4SM -RA BR BKN025 OVC040
     FM010400 15006KT 2SM -RASN BR OVC017
     FM010700 09009KT 1SM -SN BR OVC007
     FM011400 08010KT 1/2SM SN OVC004=

USA.gov is the U.S. government's official web portal to all federal, state and local government web resources and services.